Shiloh, Texas
Current Conditions -  °F | °C
As of 3:35 AM on Saturday 25 Oct 2014 (Local Time) from KLXY Reporting Station
Clear Clear  
Wind Chill: 16°   Ceiling: Unl
Heat Index: 16°   Visibility: 10mi
Dew Point: 14°   Wind: 3mph
Humidity: 90%   Direction: 160°SSE
Pressure: 30.12"   Gusts: NA
Location:  31.6887°N, 96.511°W
Report Text: KLXY 250835Z AUTO 16003KT 10SM CLR 16/14 A3012 RMK AO2 T01570140
Loading
Personal Weather Stations






























Interactive Weather Map
Tropical Storm Tracking
New forecast layout! Learn more

10-Day Weather Forecast

Advertisements
Track Severe Weather on mobile